Time;durP1;ratioP1;P1;durP2;ratioP2;P2;SDS_P1;SDS_P2;PMS_P1;PMS_P2;Temp;Humidity;BMP_temperature;BMP_pressure;BME280_temperature;BME280_humidity;BME280_pressure;Samples;Min_cycle;Max_cycle;Signal;HPM_P1;HPM_P2
2023/07/12 00:00:31;;;;;;;4.10;2.95;;;;;;;17.86;93.70;100783.63;6224375;22;20008;-71
2023/07/12 00:02:58;;;;;;;7.60;3.05;;;;;;;17.74;94.83;100792.09;6223902;22;20013;-71
2023/07/12 00:05:27;;;;;;;5.53;2.88;;;;;;;17.78;94.33;100799.84;6198713;22;20003;-71
2023/07/12 00:07:54;;;;;;;4.38;3.20;;;;;;;17.86;94.44;100786.28;6248391;22;20087;-71
2023/07/12 00:10:30;;;;;;;7.60;3.30;;;;;;;17.82;94.85;100780.22;6222471;22;20012;-71
2023/07/12 00:12:56;;;;;;;3.47;2.65;;;;;;;17.81;94.93;100781.19;6223877;22;20004;-71
2023/07/12 00:15:26;;;;;;;6.00;3.35;;;;;;;17.79;94.41;100783.03;6276464;22;20008;-71
2023/07/12 00:17:53;;;;;;;4.22;2.70;;;;;;;17.87;94.30;100773.88;6248974;22;20003;-71
2023/07/12 00:20:29;;;;;;;6.13;2.90;;;;;;;17.85;94.48;100781.91;6249104;22;20432;-71
2023/07/12 00:22:55;;;;;;;4.43;2.78;;;;;;;17.92;93.79;100791.34;6247592;22;20083;-71
2023/07/12 00:25:23;;;;;;;5.28;2.78;;;;;;;17.78;93.63;100791.88;6247980;22;20028;-71
2023/07/12 00:27:49;;;;;;;7.88;3.60;;;;;;;17.93;93.89;100806.34;6246987;22;20080;-71
2023/07/12 00:30:17;;;;;;;4.00;3.20;;;;;;;17.89;93.93;100817.09;6223358;22;20015;-71
2023/07/12 00:32:42;;;;;;;4.72;2.78;;;;;;;17.82;93.27;100820.00;6247337;22;20003;-71
2023/07/12 00:35:14;;;;;;;5.25;3.00;;;;;;;17.79;93.54;100828.09;6198270;22;20077;-71
2023/07/12 00:37:39;;;;;;;4.18;2.88;;;;;;;17.81;91.96;100833.31;6249012;22;20376;-71
2023/07/12 00:40:19;;;;;;;6.55;2.63;;;;;;;17.77;92.40;100832.59;6222654;22;20107;-71
2023/07/12 00:42:50;;;;;;;12.60;3.58;;;;;;;17.78;91.74;100834.28;6276697;22;20308;-71
2023/07/12 00:45:16;;;;;;;4.50;2.85;;;;;;;17.74;90.38;100834.50;6249917;22;20014;-71
2023/07/12 00:47:42;;;;;;;5.40;2.90;;;;;;;17.71;89.18;100837.28;6196588;22;20015;-71
2023/07/12 00:50:19;;;;;;;7.80;3.03;;;;;;;17.70;88.89;100838.19;6223249;22;20406;-71
2023/07/12 00:52:45;;;;;;;6.13;2.85;;;;;;;17.61;88.92;100852.69;6223291;22;20014;-71
2023/07/12 00:55:48;;;;;;;8.88;3.25;;;;;;;17.63;88.92;100851.72;6222994;22;20008;-71
2023/07/12 00:58:13;;;;;;;7.80;3.13;;;;;;;17.54;88.77;100846.81;6248082;22;20107;-71
2023/07/12 01:00:39;;;;;;;9.20;3.13;;;;;;;17.52;88.83;100848.63;6199142;22;20355;-71
2023/07/12 01:03:05;;;;;;;7.25;2.65;;;;;;;17.48;89.44;100849.69;6198209;22;20008;-71
2023/07/12 01:05:31;;;;;;;7.00;3.05;;;;;;;17.51;89.32;100870.75;6249129;22;20012;-71
2023/07/12 01:07:57;;;;;;;5.20;2.83;;;;;;;17.45;88.70;100871.00;6249129;22;20405;-71
2023/07/12 01:10:23;;;;;;;7.43;3.63;;;;;;;17.46;87.72;100864.78;6223360;22;20016;-70
2023/07/12 01:12:48;;;;;;;6.20;3.08;;;;;;;17.45;86.67;100879.78;6223170;22;20050;-71
2023/07/12 01:15:14;;;;;;;6.30;3.10;;;;;;;17.38;86.16;100880.97;6223207;22;20018;-71
2023/07/12 01:17:40;;;;;;;6.78;3.42;;;;;;;17.31;85.79;100883.00;6222975;22;20090;-70
2023/07/12 01:20:07;;;;;;;8.00;3.20;;;;;;;17.26;85.30;100881.47;6247900;22;20314;-71
2023/07/12 01:22:32;;;;;;;7.20;3.67;;;;;;;17.15;85.43;100887.16;6248942;22;20014;-70
2023/07/12 01:24:57;;;;;;;6.85;2.95;;;;;;;17.16;84.73;100870.38;6197184;22;20007;-70
2023/07/12 01:27:24;;;;;;;6.18;3.03;;;;;;;17.12;85.30;100847.56;6197768;22;20082;-70
2023/07/12 01:29:51;;;;;;;8.38;3.30;;;;;;;17.03;85.08;100850.59;6222621;22;20016;-70
2023/07/12 01:32:17;;;;;;;8.32;3.25;;;;;;;17.04;85.38;100865.53;6248493;22;20119;-71
2023/07/12 01:34:43;;;;;;;9.60;3.33;;;;;;;17.00;84.82;100856.84;6223131;22;20004;-70
2023/07/12 01:37:17;;;;;;;7.32;3.17;;;;;;;16.92;85.78;100874.81;6197765;22;20018;-70
2023/07/12 01:39:50;;;;;;;7.85;3.10;;;;;;;16.92;86.65;100859.81;6198698;22;20449;-70
2023/07/12 01:42:15;;;;;;;9.40;3.17;;;;;;;16.88;86.20;100858.19;6275548;22;20004;-71
2023/07/12 01:44:43;;;;;;;7.30;3.15;;;;;;;16.89;87.19;100845.81;6198130;22;20065;-71
2023/07/12 01:47:12;;;;;;;5.72;3.20;;;;;;;16.82;87.10;100845.13;6248283;22;20011;-70
2023/07/12 01:49:43;;;;;;;8.48;3.05;;;;;;;16.80;87.98;100855.78;6249516;22;20008;-71
2023/07/12 01:52:11;;;;;;;7.63;3.33;;;;;;;16.80;87.86;100845.19;6249317;22;20035;-71
2023/07/12 01:55:05;;;;;;;10.68;3.53;;;;;;;16.79;87.70;100837.31;6276345;22;20398;-71
2023/07/12 01:57:54;;;;;;;8.60;3.42;;;;;;;16.79;88.28;100826.75;6276379;22;20402;-71
2023/07/12 02:00:35;;;;;;;6.55;3.08;;;;;;;16.68;88.33;100828.91;6275921;22;20384;-71
2023/07/12 02:03:07;;;;;;;7.53;3.47;;;;;;;16.62;89.05;100816.78;6249320;22;20337;-71
2023/07/12 02:05:33;;;;;;;7.93;3.03;;;;;;;16.54;89.92;100838.25;6276558;22;20006;-71
2023/07/12 02:08:07;;;;;;;12.75;3.55;;;;;;;16.50;90.47;100826.03;6249300;22;20065;-71
2023/07/12 02:10:39;;;;;;;6.10;3.35;;;;;;;16.43;90.92;100835.13;6276001;22;20418;-71
2023/07/12 02:13:13;;;;;;;7.18;3.40;;;;;;;16.39;91.10;100859.94;6250785;22;20082;-71
2023/07/12 02:15:47;;;;;;;5.75;2.90;;;;;;;16.24;91.95;100809.34;6248840;22;20022;-71
2023/07/12 02:18:20;;;;;;;7.20;3.65;;;;;;;16.17;92.59;100844.84;6249527;22;20057;-69
2023/07/12 02:20:53;;;;;;;7.55;3.53;;;;;;;16.00;94.12;100783.78;6249419;22;20418;-70
2023/07/12 02:23:18;;;;;;;10.65;4.45;;;;;;;15.94;94.60;100806.84;6276718;22;20000;-69
2023/07/12 02:25:44;;;;;;;6.63;3.85;;;;;;;16.02;94.91;100861.22;6197386;22;20007;-70
2023/07/12 02:28:09;;;;;;;10.00;4.15;;;;;;;16.03;95.19;100863.84;6198380;22;20434;-70
2023/07/12 02:30:37;;;;;;;8.95;4.00;;;;;;;15.93;96.66;100876.50;6198476;22;20015;-69
2023/07/12 02:33:02;;;;;;;8.77;3.83;;;;;;;15.98;96.26;100870.19;6247996;22;20035;-69
2023/07/12 02:35:29;;;;;;;7.60;3.92;;;;;;;16.02;97.20;100877.97;6248158;22;20011;-69
2023/07/12 02:37:59;;;;;;;6.15;3.80;;;;;;;15.98;96.58;100862.28;6221992;22;20088;-69
2023/07/12 02:40:26;;;;;;;8.07;4.07;;;;;;;15.94;96.41;100843.84;6246797;22;20059;-69
2023/07/12 02:42:52;;;;;;;8.88;4.20;;;;;;;15.86;96.95;100811.56;6222566;22;20692;-69
2023/07/12 02:45:18;;;;;;;8.73;4.50;;;;;;;15.85;97.47;100844.19;6248177;22;20022;-70
2023/07/12 02:47:43;;;;;;;8.93;4.95;;;;;;;15.84;97.55;100839.81;6247768;22;20364;-69
2023/07/12 02:50:09;;;;;;;9.70;4.15;;;;;;;15.81;97.95;100828.50;6222920;22;20011;-70
2023/07/12 02:52:35;;;;;;;7.70;4.60;;;;;;;15.81;98.42;100842.56;6222933;22;20361;-71
2023/07/12 02:55:00;;;;;;;6.93;4.38;;;;;;;15.75;98.44;100832.16;6274430;22;20010;-71
2023/07/12 02:57:27;;;;;;;7.13;4.95;;;;;;;15.72;99.07;100848.97;6198021;22;20012;-71
2023/07/12 02:59:52;;;;;;;7.32;4.72;;;;;;;15.70;99.16;100842.00;6222326;22;20034;-71
2023/07/12 03:02:18;;;;;;;6.15;4.10;;;;;;;15.70;99.74;100842.91;6197404;22;20007;-71
2023/07/12 03:04:44;;;;;;;10.38;4.50;;;;;;;15.64;99.82;100853.63;6222911;22;20008;-71
2023/07/12 03:07:11;;;;;;;8.43;4.10;;;;;;;15.62;99.27;100846.69;6223159;22;20406;-71
2023/07/12 03:09:38;;;;;;;6.45;4.53;;;;;;;15.67;99.07;100834.19;6246729;22;20364;-71
2023/07/12 03:12:05;;;;;;;7.25;3.83;;;;;;;15.62;99.54;100858.13;6223548;22;20404;-71
2023/07/12 03:14:37;;;;;;;9.88;4.00;;;;;;;15.64;99.67;100853.63;6223438;22;20319;-71
2023/07/12 03:17:06;;;;;;;6.45;3.58;;;;;;;15.69;99.47;100864.94;6274667;22;20015;-71
2023/07/12 03:19:34;;;;;;;6.82;3.83;;;;;;;15.72;99.94;100869.25;6223041;22;20019;-71
2023/07/12 03:21:59;;;;;;;5.05;3.35;;;;;;;15.69;99.52;100875.50;6248280;22;20000;-71
2023/07/12 03:24:24;;;;;;;6.53;3.05;;;;;;;15.72;99.25;100874.53;6247454;22;20018;-71
2023/07/12 03:26:52;;;;;;;5.68;3.53;;;;;;;15.70;99.68;100873.72;6248763;22;20034;-70
2023/07/12 03:29:25;;;;;;;5.28;3.47;;;;;;;15.71;99.67;100868.38;6243500;23;20020;-70
2023/07/12 03:31:50;;;;;;;7.63;3.45;;;;;;;15.70;99.53;100868.44;6244526;22;20023;-70
2023/07/12 03:34:16;;;;;;;6.32;2.88;;;;;;;15.73;99.18;100877.13;6216572;23;20004;-70
2023/07/12 03:36:42;;;;;;;5.75;2.90;;;;;;;15.70;99.38;100876.34;6243038;23;20091;-70
2023/07/12 03:39:07;;;;;;;6.15;3.10;;;;;;;15.69;100.00;100870.22;6216856;23;20012;-70
2023/07/12 03:41:34;;;;;;;7.63;3.00;;;;;;;15.65;99.98;100868.59;6192912;23;20314;-70
2023/07/12 03:43:59;;;;;;;5.35;2.90;;;;;;;15.70;100.00;100876.34;6242226;22;20000;-70
2023/07/12 03:46:24;;;;;;;6.30;2.97;;;;;;;15.62;100.00;100876.63;6241959;23;20019;-70
2023/07/12 03:48:50;;;;;;;4.88;3.10;;;;;;;15.63;100.00;100877.47;6216540;23;20085;-70
2023/07/12 03:51:17;;;;;;;5.75;2.67;;;;;;;15.62;100.00;100891.59;6217317;23;20074;-70
2023/07/12 03:53:43;;;;;;;6.03;3.00;;;;;;;15.59;99.83;100890.78;6191782;23;20430;-70
2023/07/12 03:56:09;;;;;;;6.30;3.17;;;;;;;15.63;100.00;100899.47;6241967;22;20018;-70
2023/07/12 03:58:37;;;;;;;6.47;3.67;;;;;;;15.57;99.47;100903.19;6241340;23;20291;-70
2023/07/12 04:01:06;;;;;;;7.28;4.07;;;;;;;15.62;100.00;100891.59;6216762;23;20434;-70
2023/07/12 04:03:32;;;;;;;10.25;5.50;;;;;;;15.58;99.38;100896.97;6241253;23;20371;-70
2023/07/12 04:05:57;;;;;;;8.88;5.75;;;;;;;15.55;98.67;100901.50;6242184;22;20004;-70
2023/07/12 04:08:30;;;;;;;9.10;6.15;;;;;;;15.50;98.85;100899.00;6242261;23;20087;-70
2023/07/12 04:11:10;;;;;;;9.30;6.30;;;;;;;15.49;98.60;100905.19;6243890;22;20004;-70
2023/07/12 04:13:36;;;;;;;7.35;5.65;;;;;;;15.50;98.61;100911.31;6244031;23;20090;-70
2023/07/12 04:16:04;;;;;;;8.77;5.45;;;;;;;15.50;98.47;100912.22;6217075;23;20402;-70
2023/07/12 04:18:32;;;;;;;7.70;5.68;;;;;;;15.50;98.49;100908.69;6241932;23;20052;-70
2023/07/12 04:21:04;;;;;;;7.88;4.82;;;;;;;15.51;99.04;100911.28;6216265;23;20008;-68
2023/07/12 04:23:29;;;;;;;7.32;5.03;;;;;;;15.54;99.11;100912.97;6214507;23;20066;-68
2023/07/12 04:25:59;;;;;;;9.60;5.68;;;;;;;15.53;99.36;100917.38;6190145;23;20412;-69
2023/07/12 04:28:25;;;;;;;;;;;;;;;15.71;97.24;100920.34;6191485;23;20031;-69
2023/07/12 04:30:50;;;;;;;9.77;5.93;;;;;;;15.55;97.62;100907.63;6214958;23;20253;-69
2023/07/12 04:33:16;;;;;;;10.45;5.68;;;;;;;15.55;97.26;100912.91;6190979;23;20091;-69
2023/07/12 04:35:41;;;;;;;8.60;5.22;;;;;;;15.57;97.05;100907.56;6214269;23;20016;-68
2023/07/12 04:38:07;;;;;;;8.45;5.93;;;;;;;15.57;97.10;100915.50;6215052;23;20015;-69
2023/07/12 04:40:32;;;;;;;11.00;5.80;;;;;;;15.60;96.97;100915.41;6218251;23;20012;-68
2023/07/12 04:42:58;;;;;;;10.38;6.40;;;;;;;15.61;97.14;100913.66;6219004;23;20004;-69
2023/07/12 04:45:23;;;;;;;7.70;5.97;;;;;;;15.67;96.80;100913.44;6218678;23;20008;-68
2023/07/12 04:47:49;;;;;;;8.55;5.68;;;;;;;15.97;95.96;100916.03;6217250;23;20012;-69
2023/07/12 04:50:14;;;;;;;6.82;5.10;;;;;;;16.22;93.75;100921.34;6244387;23;20015;-69
2023/07/12 04:52:39;;;;;;;8.65;5.40;;;;;;;16.07;92.96;100918.31;6218826;23;20012;-69
2023/07/12 04:55:19;;;;;;;10.68;5.88;;;;;;;16.03;94.50;100934.31;6191982;23;20055;-68
2023/07/12 04:57:45;;;;;;;10.45;6.03;;;;;;;15.89;94.06;100914.50;6241521;23;20018;-68
2023/07/12 05:00:13;;;;;;;13.60;5.95;;;;;;;15.87;94.92;100924.25;6192830;23;20099;-70
2023/07/12 05:02:39;;;;;;;8.57;5.22;;;;;;;15.84;94.33;100927.00;6194385;23;20019;-70
2023/07/12 05:05:05;;;;;;;8.48;4.90;;;;;;;15.83;95.04;100935.84;6193779;23;20028;-70
2023/07/12 05:07:31;;;;;;;8.05;4.78;;;;;;;16.13;94.74;100938.38;6217307;23;20434;-70
2023/07/12 05:09:57;;;;;;;12.48;4.95;;;;;;;16.72;91.56;100926.69;6192225;23;20039;-70
2023/07/12 05:12:22;;;;;;;8.95;4.03;;;;;;;16.89;89.03;100923.41;6193450;23;20011;-70
2023/07/12 05:14:48;;;;;;;8.73;4.13;;;;;;;17.63;87.67;100925.91;6218549;23;20004;-70
2023/07/12 05:17:13;;;;;;;9.32;3.28;;;;;;;18.78;81.75;100927.31;6218494;23;20020;-70
2023/07/12 05:19:39;;;;;;;7.20;3.00;;;;;;;19.64;76.47;100933.09;6218825;23;20319;-70
2023/07/12 05:22:04;;;;;;;8.13;3.42;;;;;;;20.59;74.14;100937.28;6217717;23;20434;-70
2023/07/12 05:24:30;;;;;;;8.90;3.40;;;;;;;21.20;71.31;100932.28;6215798;23;20010;-70
2023/07/12 05:26:56;;;;;;;7.43;3.10;;;;;;;21.78;67.88;100933.53;6193384;23;20012;-70
2023/07/12 05:29:22;;;;;;;6.85;2.75;;;;;;;21.99;67.10;100942.09;6217682;23;20411;-70
2023/07/12 05:31:47;;;;;;;8.55;3.00;;;;;;;22.24;64.09;100946.84;6191637;23;20058;-71
2023/07/12 05:34:13;;;;;;;6.38;2.75;;;;;;;22.72;65.60;100961.88;6216207;23;20003;-70
2023/07/12 05:36:38;;;;;;;8.48;3.20;;;;;;;22.47;63.92;100960.69;6218326;23;20043;-70
2023/07/12 05:39:04;;;;;;;9.07;2.97;;;;;;;21.40;64.15;100947.19;6192925;23;20004;-70
2023/07/12 05:41:32;;;;;;;8.77;3.15;;;;;;;21.48;65.89;100944.06;6193848;23;20173;-70
2023/07/12 05:43:58;;;;;;;7.53;2.60;;;;;;;22.17;62.86;100944.63;6243438;22;20004;-69
2023/07/12 05:46:23;;;;;;;6.10;3.20;;;;;;;23.07;63.25;100957.00;6191580;23;20421;-69
2023/07/12 05:48:49;;;;;;;8.10;2.70;;;;;;;23.22;58.75;100954.38;6240719;23;20079;-69
2023/07/12 05:51:14;;;;;;;5.60;2.60;;;;;;;24.01;59.31;100958.19;6192059;23;20016;-69
2023/07/12 05:53:40;;;;;;;6.65;2.63;;;;;;;24.52;58.06;100963.69;6241350;23;20016;-69
2023/07/12 05:56:06;;;;;;;6.75;2.78;;;;;;;25.17;53.73;100964.53;6216483;23;20426;-69
2023/07/12 05:58:31;;;;;;;7.28;2.60;;;;;;;25.32;54.55;100961.75;6217064;23;20012;-69
2023/07/12 06:00:59;;;;;;;5.85;2.20;;;;;;;25.40;52.12;100970.09;6217644;23;20008;-69
2023/07/12 06:03:26;;;;;;;10.40;3.03;;;;;;;24.83;53.42;100972.28;6243305;23;20000;-69
2023/07/12 06:05:52;;;;;;;10.43;3.13;;;;;;;24.49;54.28;100976.41;6217763;23;20008;-69
2023/07/12 06:08:18;;;;;;;6.22;2.60;;;;;;;24.19;54.85;100978.38;6217318;23;20055;-69
2023/07/12 06:10:44;;;;;;;6.28;2.40;;;;;;;24.23;56.29;100979.03;6216680;23;20008;-69
2023/07/12 06:13:09;;;;;;;6.55;2.65;;;;;;;24.48;55.14;100980.91;6192858;23;20050;-69
2023/07/12 06:15:35;;;;;;;6.28;2.38;;;;;;;24.65;54.08;100985.16;6217629;23;20016;-69
2023/07/12 06:18:00;;;;;;;6.43;2.20;;;;;;;24.65;53.50;100987.84;6241887;23;20016;-69
2023/07/12 06:20:26;;;;;;;5.63;2.45;;;;;;;24.61;55.13;100988.13;6216845;23;20377;-69
2023/07/12 06:22:51;;;;;;;7.60;2.67;;;;;;;24.54;54.28;100999.22;6193034;23;20482;-69
2023/07/12 06:25:17;;;;;;;6.97;2.85;;;;;;;24.27;54.62;100979.69;6192489;23;20008;-69
2023/07/12 06:27:43;;;;;;;6.63;2.40;;;;;;;24.47;55.72;100978.34;6217672;22;20012;-69
2023/07/12 06:30:09;;;;;;;7.40;2.70;;;;;;;25.19;54.80;100986.72;6196593;22;20074;-69
2023/07/12 06:32:34;;;;;;;5.85;2.15;;;;;;;25.00;52.37;100995.22;6222831;22;20022;-69
2023/07/12 06:35:00;;;;;;;6.95;2.50;;;;;;;23.96;53.87;100984.41;6248354;22;20086;-69
2023/07/12 06:37:25;;;;;;;8.05;2.45;;;;;;;22.89;59.23;100995.56;6220313;22;20023;-69
2023/07/12 06:39:51;;;;;;;7.07;2.90;;;;;;;22.58;61.44;100997.41;6196453;22;20015;-69
2023/07/12 06:42:16;;;;;;;5.50;2.42;;;;;;;21.90;60.90;101012.00;6222354;22;20018;-69
2023/07/12 06:44:41;;;;;;;8.80;3.45;;;;;;;21.24;63.38;101011.97;6197690;22;20004;-69
2023/07/12 06:47:07;;;;;;;6.72;2.85;;;;;;;20.55;66.27;101023.56;6222554;22;20035;-68
2023/07/12 06:49:32;;;;;;;6.07;2.80;;;;;;;20.19;67.68;101024.47;6198119;22;20090;-69
2023/07/12 06:51:58;;;;;;;6.60;2.78;;;;;;;19.83;68.72;101020.00;6248276;22;20034;-69
2023/07/12 06:54:23;;;;;;;6.55;3.05;;;;;;;19.45;69.48;101022.59;6195742;22;19999;-68
2023/07/12 06:56:49;;;;;;;8.75;3.22;;;;;;;19.25;70.86;101012.88;6274280;22;20004;-69
2023/07/12 06:59:14;;;;;;;8.07;3.17;;;;;;;18.93;72.04;101021.34;6222381;22;20007;-69
2023/07/12 07:01:40;;;;;;;6.65;3.47;;;;;;;18.69;73.16;101028.56;6197455;22;20003;-69
2023/07/12 07:04:05;;;;;;;9.45;3.60;;;;;;;18.52;74.19;101029.31;6196770;22;20019;-69
2023/07/12 07:06:30;;;;;;;9.27;3.75;;;;;;;18.43;75.31;101034.97;6248213;22;20153;-70
2023/07/12 07:08:56;;;;;;;11.63;4.40;;;;;;;18.22;75.19;101034.09;6246844;22;20015;-70
2023/07/12 07:11:22;;;;;;;8.68;3.60;;;;;;;18.16;76.65;101037.84;6222517;22;20441;-70
2023/07/12 07:13:50;;;;;;;9.80;3.88;;;;;;;17.99;77.60;101043.81;6247951;22;20014;-70
2023/07/12 07:16:16;;;;;;;8.50;3.67;;;;;;;17.93;77.50;101047.56;6197910;22;20015;-70
2023/07/12 07:18:42;;;;;;;9.30;4.03;;;;;;;17.82;77.81;101047.09;6221926;22;20023;-70
2023/07/12 07:21:07;;;;;;;8.52;3.60;;;;;;;17.72;78.43;101046.59;6248134;22;20008;-70
2023/07/12 07:23:33;;;;;;;8.35;3.45;;;;;;;17.77;77.94;101041.97;6247747;22;20004;-70
2023/07/12 07:26:03;;;;;;;10.43;3.65;;;;;;;17.70;78.31;101055.50;6197414;22;20311;-70
2023/07/12 07:28:29;;;;;;;9.60;3.97;;;;;;;17.88;78.72;101046.84;6222220;22;20019;-70
2023/07/12 07:30:55;;;;;;;9.20;3.33;;;;;;;17.78;78.64;101058.75;6247938;22;20015;-70
2023/07/12 07:33:21;;;;;;;9.73;3.90;;;;;;;17.89;78.22;101051.25;6222212;22;20034;-70
2023/07/12 07:35:46;;;;;;;8.20;4.10;;;;;;;18.20;78.07;101065.09;6222505;22;20410;-70
2023/07/12 07:38:13;;;;;;;9.45;3.80;;;;;;;18.30;76.97;101069.97;6197738;22;20065;-70
2023/07/12 07:40:42;;;;;;;7.10;4.00;;;;;;;18.75;79.00;101064.59;6221641;22;20094;-70
2023/07/12 07:43:13;;;;;;;14.75;4.28;;;;;;;19.07;77.46;101070.38;6247732;22;20015;-70
2023/07/12 07:45:39;;;;;;;8.55;4.13;;;;;;;19.30;74.98;101067.53;6247846;22;20105;-70
2023/07/12 07:48:05;;;;;;;10.45;4.22;;;;;;;19.27;73.38;101064.19;6222492;22;20015;-70
2023/07/12 07:50:31;;;;;;;7.50;3.50;;;;;;;19.48;73.83;101071.19;6222305;22;20401;-70
2023/07/12 07:52:56;;;;;;;8.60;3.95;;;;;;;19.69;75.21;101076.44;6222269;22;20008;-70
2023/07/12 07:55:22;;;;;;;11.50;3.90;;;;;;;19.49;70.84;101064.06;6247250;22;20394;-70
2023/07/12 07:57:47;;;;;;;8.50;3.80;;;;;;;19.37;71.55;101074.31;6222773;22;20042;-70
2023/07/12 08:00:14;;;;;;;8.02;3.08;;;;;;;19.34;72.61;101079.78;6247351;22;20057;-70
2023/07/12 08:02:42;;;;;;;9.45;3.53;;;;;;;19.42;72.25;101075.91;6247005;22;20090;-70
2023/07/12 08:05:08;;;;;;;9.40;3.50;;;;;;;19.38;73.02;101076.03;6247783;22;20007;-69
2023/07/12 08:07:43;;;;;;;6.97;3.20;;;;;;;19.36;72.74;101093.84;6193670;22;20065;-70
2023/07/12 08:10:14;;;;;;;7.13;3.53;;;;;;;19.51;72.90;101086.97;6246033;22;20028;-70
2023/07/12 08:12:39;;;;;;;7.78;3.70;;;;;;;19.61;74.41;101091.88;6248718;22;20000;-70
2023/07/12 08:15:05;;;;;;;9.80;3.60;;;;;;;19.64;72.00;101097.91;6223913;22;20288;-70
2023/07/12 08:17:31;;;;;;;9.02;3.80;;;;;;;19.72;72.62;101090.47;6248664;22;20016;-70
2023/07/12 08:19:57;;;;;;;8.15;3.42;;;;;;;19.73;71.11;101086.00;6224022;22;20030;-70
2023/07/12 08:22:23;;;;;;;10.98;3.53;;;;;;;19.61;71.71;101095.41;6224052;22;20008;-70
2023/07/12 08:24:48;;;;;;;8.35;3.22;;;;;;;19.49;70.73;101093.28;6223488;22;20408;-70
2023/07/12 08:27:16;;;;;;;9.38;3.45;;;;;;;19.43;72.18;101101.56;6199418;22;20023;-70
2023/07/12 08:29:42;;;;;;;9.15;3.60;;;;;;;19.32;71.39;101107.34;6224532;22;20023;-70
2023/07/12 08:32:08;;;;;;;5.70;2.95;;;;;;;19.24;71.83;101102.38;6224095;22;20412;-70
2023/07/12 08:34:34;;;;;;;7.75;3.55;;;;;;;19.15;69.69;101110.72;6224348;22;20437;-70
2023/07/12 08:36:59;;;;;;;9.90;3.80;;;;;;;19.13;70.77;101107.28;6224178;22;20012;-70
2023/07/12 08:39:25;;;;;;;7.20;3.38;;;;;;;19.16;70.62;101108.00;6223779;22;20011;-70
2023/07/12 08:41:51;;;;;;;7.90;4.00;;;;;;;19.20;72.37;101114.06;6198882;22;20432;-70
2023/07/12 08:44:17;;;;;;;9.27;3.95;;;;;;;19.33;71.36;101111.72;6224577;22;20410;-70
2023/07/12 08:46:57;;;;;;;10.85;4.05;;;;;;;19.50;71.36;101118.94;6249747;22;20004;-70
2023/07/12 08:49:24;;;;;;;11.90;4.10;;;;;;;19.68;71.50;101120.78;6223795;22;20030;-70
2023/07/12 08:51:51;;;;;;;8.10;3.65;;;;;;;19.66;70.78;101114.66;6249418;22;20004;-70
2023/07/12 08:54:22;;;;;;;8.45;3.30;;;;;;;19.73;69.74;101113.44;6223977;22;20082;-70
2023/07/12 08:56:50;;;;;;;7.97;3.92;;;;;;;19.64;69.31;101119.19;6249077;22;20390;-70
2023/07/12 08:59:17;;;;;;;8.43;3.38;;;;;;;19.67;69.22;101120.84;6249232;22;20082;-70
2023/07/12 09:01:53;;;;;;;9.45;4.05;;;;;;;19.71;69.62;101128.63;6222593;22;20023;-70
2023/07/12 09:04:28;;;;;;;9.88;3.60;;;;;;;19.75;69.15;101126.66;6248084;22;20003;-70
2023/07/12 09:06:56;;;;;;;12.40;3.88;;;;;;;19.85;69.35;101117.34;6248794;22;20398;-69
2023/07/12 09:09:22;;;;;;;9.38;3.80;;;;;;;20.00;69.59;101121.13;6247865;22;20012;-70
2023/07/12 09:11:47;;;;;;;9.68;4.30;;;;;;;20.08;70.74;101128.72;6223785;22;20060;-70
2023/07/12 09:14:18;;;;;;;10.27;4.10;;;;;;;20.17;68.28;101132.75;6223173;22;20053;-70
2023/07/12 09:16:57;;;;;;;10.48;3.83;;;;;;;20.21;67.83;101134.31;6249270;22;20031;-70
2023/07/12 09:19:27;;;;;;;10.93;3.97;;;;;;;20.25;68.77;101131.44;6249197;22;20341;-70
2023/07/12 09:22:08;;;;;;;8.25;3.80;;;;;;;20.18;67.71;101134.47;6249533;22;20011;-70
2023/07/12 09:24:42;;;;;;;9.93;3.97;;;;;;;20.25;68.63;101133.25;6247430;22;20004;-70
2023/07/12 09:27:18;;;;;;;8.88;3.78;;;;;;;20.39;67.37;101127.28;6248903;22;20003;-71
2023/07/12 09:29:44;;;;;;;8.48;4.50;;;;;;;20.50;66.93;101116.97;6248608;22;20086;-70
2023/07/12 09:34:47;;;;;;;9.68;4.25;;;;;;;20.65;67.36;101107.34;6269665;22;20022;-68
2023/07/12 09:37:16;;;;;;;6.57;2.83;;;;;;;20.68;64.76;101111.69;6224037;22;20028;-68
2023/07/12 09:39:52;;;;;;;8.52;4.90;;;;;;;20.89;67.37;101117.75;6248403;22;20007;-68
2023/07/12 09:42:18;;;;;;;11.43;3.78;;;;;;;21.03;64.30;101109.91;6248948;22;20003;-67
2023/07/12 09:44:46;;;;;;;9.32;4.43;;;;;;;21.04;62.60;101114.28;6223133;22;20072;-68
2023/07/12 09:47:46;;;;;;;9.25;3.80;;;;;;;21.28;64.33;101117.47;6248573;22;20056;-67
2023/07/12 09:50:22;;;;;;;8.93;3.63;;;;;;;21.29;62.93;101110.34;6249071;22;19996;-67
2023/07/12 09:53:13;;;;;;;8.02;3.78;;;;;;;21.26;62.15;101113.16;6248941;22;20011;-68
2023/07/12 09:55:51;;;;;;;8.65;3.35;;;;;;;21.12;61.66;101111.25;6248266;22;20010;-68
2023/07/12 09:58:31;;;;;;;9.48;3.72;;;;;;;21.28;62.33;101095.31;6248399;22;20095;-68
2023/07/12 10:01:21;;;;;;;6.60;3.30;;;;;;;21.25;62.15;101100.81;6248775;22;20061;-67
2023/07/12 10:03:50;;;;;;;;;;;;;;;21.41;61.60;101100.84;6248516;22;20092;-67
2023/07/12 10:06:39;;;;;;;11.73;4.13;;;;;;;21.30;62.57;101104.06;6247733;22;19903;-67
2023/07/12 10:09:16;;;;;;;7.20;3.53;;;;;;;21.09;60.89;101095.44;6247616;22;20246;-67
2023/07/12 10:11:55;;;;;;;8.40;4.00;;;;;;;21.28;63.21;101104.16;6248033;22;20007;-68
2023/07/12 10:14:29;;;;;;;10.17;3.40;;;;;;;21.14;62.56;101100.50;6248036;22;20046;-69
2023/07/12 10:16:56;;;;;;;10.02;4.45;;;;;;;21.27;64.03;101096.25;6247569;22;20325;-69
2023/07/12 10:19:36;;;;;;;9.10;3.58;;;;;;;21.42;62.35;101089.22;6221549;22;20015;-68
2023/07/12 10:22:21;;;;;;;10.65;3.70;;;;;;;21.55;60.12;101095.69;6247957;22;20007;-70
2023/07/12 10:24:51;;;;;;;7.22;3.13;;;;;;;21.62;60.14;101085.53;6222239;22;20079;-68
2023/07/12 10:27:31;;;;;;;8.80;3.07;;;;;;;21.68;59.86;101098.53;6248566;22;20046;-69
2023/07/12 10:30:19;;;;;;;7.55;2.85;;;;;;;21.74;61.72;101102.69;6248081;22;20117;-68
2023/07/12 10:32:55;;;;;;;6.35;3.00;;;;;;;21.76;60.00;101098.97;6247394;22;20007;-69
2023/07/12 10:35:40;;;;;;;8.70;2.72;;;;;;;21.86;59.22;101103.81;6247759;22;20058;-69
2023/07/12 10:38:12;;;;;;;8.07;2.55;;;;;;;21.84;59.22;101100.34;6248528;22;20006;-68
2023/07/12 10:40:47;;;;;;;9.98;3.05;;;;;;;21.81;59.84;101104.06;6246163;22;20362;-68
2023/07/12 10:46:24;;;;;;;7.13;2.53;;;;;;;22.01;59.33;101094.09;6253571;22;20111;-69
2023/07/12 10:48:54;;;;;;;6.30;2.30;;;;;;;22.11;59.29;101093.50;6246268;22;20103;-69
2023/07/12 10:51:36;;;;;;;7.18;2.42;;;;;;;22.25;56.58;101098.03;6246756;22;20007;-70
2023/07/12 10:54:03;;;;;;;5.75;2.25;;;;;;;22.37;55.05;101109.88;6246457;22;20003;-68
2023/07/12 10:56:34;;;;;;;6.35;2.40;;;;;;;22.45;56.87;101104.09;6247479;22;20006;-68
2023/07/12 10:59:01;;;;;;;6.60;2.42;;;;;;;22.71;56.64;101104.38;6247605;22;20011;-68
2023/07/12 11:01:41;;;;;;;9.32;2.42;;;;;;;22.76;55.54;101107.66;6248271;22;20064;-68
2023/07/12 11:04:44;;;;;;;4.97;1.90;;;;;;;22.87;56.59;101110.56;6247508;22;20079;-69
2023/07/12 11:07:14;;;;;;;6.70;1.85;;;;;;;22.82;57.04;101102.78;6274625;22;20025;-68
2023/07/12 11:10:02;;;;;;;6.53;2.00;;;;;;;22.75;53.52;101111.28;6245920;22;20008;-69
2023/07/12 11:12:31;;;;;;;6.70;2.38;;;;;;;22.73;53.51;101108.69;6247817;22;20101;-69
2023/07/12 11:15:03;;;;;;;5.68;2.15;;;;;;;22.69;57.06;101109.81;6247626;22;20007;-68
2023/07/12 11:17:29;;;;;;;8.38;2.30;;;;;;;22.69;54.55;101101.81;6247691;22;20444;-68
2023/07/12 11:20:21;;;;;;;6.93;2.47;;;;;;;22.68;55.65;101116.09;6248014;22;20007;-71
2023/07/12 11:22:57;;;;;;;8.60;2.22;;;;;;;22.40;54.31;101108.84;6248046;22;20341;-70
2023/07/12 11:25:38;;;;;;;7.32;2.22;;;;;;;22.51;56.01;101098.38;6247220;22;20004;-70
2023/07/12 11:28:23;;;;;;;7.82;2.45;;;;;;;22.63;57.12;101104.84;6248046;22;20421;-70
2023/07/12 11:31:23;;;;;;;7.68;2.42;;;;;;;22.77;55.42;101099.53;6247084;22;20031;-70
2023/07/12 11:34:09;;;;;;;8.02;2.28;;;;;;;22.76;55.57;101103.16;6246323;22;20090;-70
2023/07/12 11:36:36;;;;;;;9.82;2.53;;;;;;;22.66;53.41;101102.00;6247809;22;20008;-70
2023/07/12 11:39:10;;;;;;;9.43;2.53;;;;;;;22.82;54.44;101100.13;6246140;22;20422;-70